Aviation Digital Data Service (ADDS)

Output produced by METARs form (1540 UTC 24 September 2017)
found at http://www.aviationweather.gov/adds/metars/
 
KUNV 241453Z 00000KT 10SM SKC 25/18 A3019
KUNV 241353Z 00000KT 10SM SKC 21/17 A3020
KUNV 241253Z 00000KT 10SM SKC 18/16 A3020
KUNV 241153Z 00000KT 10SM SKC 16/15 A3020
KUNV 241053Z 00000KT 10SM SKC 15/15 A3018
KUNV 240953Z 00000KT 10SM SCT095 15/15 A3017
KUNV 240935Z AUTO 00000KT 10SM SCT095 15/15 A3016 RMK AO2 T01540147
KUNV 240915Z AUTO 00000KT 4SM BR SCT095 15/15 A3016 RMK AO2 T01510147
KUNV 240855Z AUTO 00000KT 7SM SCT060 SCT085 15/15 A3016 RMK AO2 T01540150
KUNV 240835Z AUTO 00000KT 10SM SCT070 SCT080 SCT085 16/15 A3016 RMK AO2 T01550150
KUNV 240815Z AUTO 00000KT 10SM CLR 16/15 A3016 RMK AO2 T01590150
KUNV 240755Z AUTO 00000KT 10SM SCT095 16/15 A3015 RMK AO2 T01600150
KUNV 240735Z AUTO 00000KT 10SM SCT095 16/15 A3015 RMK AO2 T01560150
KUNV 240715Z AUTO 00000KT 10SM SCT095 16/15 A3015 RMK AO2 T01590150
KUNV 240655Z AUTO 00000KT 10SM CLR 16/15 A3015 RMK AO2 T01600150
KUNV 240635Z AUTO 00000KT 10SM SCT070 SCT090 17/15 A3015 RMK AO2 T01650152
KUNV 240615Z AUTO 00000KT 10SM SCT070 SCT080 17/15 A3015 RMK AO2 T01700151
KUNV 240555Z AUTO 00000KT 10SM SCT060 SCT070 SCT100 16/15 A3015 RMK AO2 T01600151 10245 20160
KUNV 240535Z AUTO 00000KT 10SM SCT070 SCT100 17/15 A3015 RMK AO2 T01700151
KUNV 240515Z AUTO 00000KT 10SM SCT075 SCT100 18/15 A3015 RMK AO2 T01750150
KUNV 240455Z AUTO 00000KT 10SM SCT100 17/15 A3015 RMK AO2 T01720152
KUNV 240435Z AUTO 00000KT 10SM SCT080 SCT100 SCT120 18/15 A3015 RMK AO2 T01760153
KUNV 240415Z AUTO 00000KT 10SM SCT070 SCT090 SCT110 19/16 A3015 RMK AO2 T01880155
KUNV 240355Z AUTO 00000KT 10SM SCT070 SCT080 SCT090 19/16 A3015 RMK AO2 T01940155 402980112
KUNV 240335Z AUTO 00000KT 10SM SCT080 SCT090 SCT110 19/16 A3015 RMK AO2 T01910162
KUNV 240315Z AUTO 00000KT 10SM BKN110 20/16 A3015 RMK AO2 T01970162
KUNV 240255Z AUTO 00000KT 10SM BKN095 20/16 A3014 RMK AO2 T01980164
KUNV 240235Z AUTO 00000KT 10SM SCT095 21/17 A3014 RMK AO2 T02070165
KUNV 240215Z AUTO 00000KT 10SM SCT090 20/16 A3014 RMK AO2 T02040164
KUNV 240053Z 00000KT 10SM SCT075 SCT090 23/15 A3014
KUNV 232353Z 00000KT 10SM SCT070 SCT100 24/15 A3012
KUNV 232253Z 00000KT 10SM SKC 27/15 A3011
KUNV 232153Z 00000KT 10SM SKC 29/15 A3011
KUNV 232053Z 00000KT 10SM SKC 29/14 A3010
KUNV 231953Z 00000KT 10SM SKC 29/13 A3011
KUNV 231853Z 00000KT 10SM SKC 29/13 A3013
KUNV 231753Z 00000KT 10SM SKC 28/13 A3014
KUNV 231653Z 00000KT 10SM SKC 26/12 A3016
KUNV 231553Z 00000KT 10SM SKC 24/14 A3017
KUNV 231453Z 00000KT 10SM SKC 21/14 A3018
KUNV 231353Z 00000KT 10SM SKC 18/14 A3018
KUNV 231253Z 30005KT 10SM SKC 15/13 A3017
KUNV 231153Z 00000KT 10SM SCT085 12/11 A3015
KUNV 231053Z 00000KT 10SM SCT085 11/11 A3013
KUNV 230953Z 00000KT 10SM SKC 11/11 A3010
KUNV 230935Z AUTO 00000KT 10SM SCT060 SCT070 SCT085 12/11 A3010 RMK AO2 T01160109
KUNV 230915Z AUTO 00000KT 10SM SCT060 SCT080 12/12 A3011 RMK AO2 T01240119
KUNV 230855Z AUTO 00000KT 10SM SCT070 SCT090 12/11 A3010 RMK AO2 T01180111
KUNV 230835Z AUTO 00000KT 10SM SCT070 SCT090 14/12 A3011 RMK AO2 T01380123
KUNV 230815Z AUTO 00000KT 10SM SCT065 SCT080 13/13 A3011 RMK AO2 T01320125
KUNV 230755Z AUTO 00000KT 10SM SCT065 SCT080 13/12 A3011 RMK AO2 T01250119
KUNV 230735Z AUTO 00000KT 10SM SCT080 14/12 A3011 RMK AO2 T01420124
KUNV 230715Z AUTO 00000KT 10SM SCT095 SCT110 14/12 A3012 RMK AO2 T01400123
KUNV 230655Z AUTO 00000KT 10SM SCT065 SCT085 14/13 A3012 RMK AO2 T01350125
KUNV 230635Z AUTO 00000KT 10SM SCT075 SCT085 14/12 A3012 RMK AO2 T01400118
KUNV 230615Z AUTO 00000KT 10SM SCT100 SCT120 15/13 A3011 RMK AO2 T01460129
KUNV 230535Z AUTO 00000KT 10SM SCT070 SCT095 16/13 A3011 RMK AO2 T01640128
KUNV 230515Z AUTO 00000KT 10SM SCT095 SCT110 15/13 A3011 RMK AO2 T01520127
KUNV 230455Z AUTO 00000KT 10SM SCT085 SCT110 17/13 A3011 RMK AO2 T01660129
KUNV 230435Z AUTO 36005KT 10SM SCT070 SCT095 17/13 A3012 RMK AO2 T01720130
KUNV 230415Z AUTO 00000KT 10SM SCT065 SCT075 SCT085 16/13 A3012 RMK AO2 T01570130
KUNV 230355Z AUTO 04004KT 10SM SCT065 SCT085 SCT095 18/13 A3012 RMK AO2 T01820133 402860135